sensor_id;sensor_type;location;lat;lon;timestamp;pressure;altitude;pressure_sealevel;temperature;humidity
57801;BME280;43627;42.728;23.256;2023-04-30T00:02:07;94677.59;;;10.03;100.00
57801;BME280;43627;42.728;23.256;2023-04-30T00:04:34;94675.81;;;10.00;100.00
57801;BME280;43627;42.728;23.256;2023-04-30T00:07:02;94678.72;;;9.97;100.00
57801;BME280;43627;42.728;23.256;2023-04-30T00:09:29;94680.28;;;9.89;100.00
57801;BME280;43627;42.728;23.256;2023-04-30T00:11:56;94674.84;;;9.89;100.00
57801;BME280;43627;42.728;23.256;2023-04-30T00:14:22;94666.72;;;9.80;100.00
57801;BME280;43627;42.728;23.256;2023-04-30T00:16:49;94682.19;;;9.73;100.00
57801;BME280;43627;42.728;23.256;2023-04-30T00:19:16;94682.59;;;9.57;100.00
57801;BME280;43627;42.728;23.256;2023-04-30T00:21:43;94685.31;;;9.57;100.00
57801;BME280;43627;42.728;23.256;2023-04-30T00:24:10;94672.66;;;9.45;100.00
57801;BME280;43627;42.728;23.256;2023-04-30T00:26:36;94679.03;;;9.42;100.00
57801;BME280;43627;42.728;23.256;2023-04-30T00:29:04;94660.22;;;9.29;100.00
57801;BME280;43627;42.728;23.256;2023-04-30T00:31:31;94681.94;;;9.38;100.00
57801;BME280;43627;42.728;23.256;2023-04-30T00:33:57;94674.53;;;9.39;100.00
57801;BME280;43627;42.728;23.256;2023-04-30T00:36:24;94686.03;;;9.34;100.00
57801;BME280;43627;42.728;23.256;2023-04-30T00:38:51;94670.03;;;9.27;100.00
57801;BME280;43627;42.728;23.256;2023-04-30T00:41:18;94689.78;;;9.36;100.00
57801;BME280;43627;42.728;23.256;2023-04-30T00:43:46;94685.72;;;9.32;100.00
57801;BME280;43627;42.728;23.256;2023-04-30T00:46:13;94680.00;;;9.30;100.00
57801;BME280;43627;42.728;23.256;2023-04-30T00:48:39;94661.75;;;9.21;100.00
57801;BME280;43627;42.728;23.256;2023-04-30T00:51:06;94665.69;;;9.20;100.00
57801;BME280;43627;42.728;23.256;2023-04-30T00:53:34;94662.25;;;9.10;100.00
57801;BME280;43627;42.728;23.256;2023-04-30T00:56:01;94665.25;;;9.12;100.00
57801;BME280;43627;42.728;23.256;2023-04-30T00:58:28;94656.66;;;9.05;100.00
57801;BME280;43627;42.728;23.256;2023-04-30T01:00:55;94673.00;;;8.96;100.00
57801;BME280;43627;42.728;23.256;2023-04-30T01:03:22;94667.63;;;8.77;100.00
57801;BME280;43627;42.728;23.256;2023-04-30T01:05:49;94650.00;;;8.64;100.00
57801;BME280;43627;42.728;23.256;2023-04-30T01:08:16;94669.44;;;8.71;100.00
57801;BME280;43627;42.728;23.256;2023-04-30T01:16:47;94660.13;;;8.54;100.00
57801;BME280;43627;42.728;23.256;2023-04-30T01:19:37;94672.34;;;8.22;100.00
57801;BME280;43627;42.728;23.256;2023-04-30T01:22:09;94672.78;;;8.02;100.00
57801;BME280;43627;42.728;23.256;2023-04-30T01:30:15;94669.78;;;7.82;100.00
57801;BME280;43627;42.728;23.256;2023-04-30T01:32:42;94670.06;;;7.84;100.00
57801;BME280;43627;42.728;23.256;2023-04-30T01:35:09;94658.00;;;7.76;100.00
57801;BME280;43627;42.728;23.256;2023-04-30T01:51:27;94671.41;;;7.70;100.00
57801;BME280;43627;42.728;23.256;2023-04-30T01:53:57;94667.22;;;7.78;100.00
57801;BME280;43627;42.728;23.256;2023-04-30T01:56:30;94661.31;;;7.70;100.00
57801;BME280;43627;42.728;23.256;2023-04-30T01:58:58;94671.13;;;7.77;100.00
57801;BME280;43627;42.728;23.256;2023-04-30T02:01:26;94678.69;;;7.91;100.00
57801;BME280;43627;42.728;23.256;2023-04-30T02:03:54;94677.47;;;7.92;100.00
57801;BME280;43627;42.728;23.256;2023-04-30T02:06:22;94673.25;;;7.82;100.00
57801;BME280;43627;42.728;23.256;2023-04-30T02:08:54;94676.72;;;7.83;100.00
57801;BME280;43627;42.728;23.256;2023-04-30T02:11:22;94653.94;;;7.80;100.00
57801;BME280;43627;42.728;23.256;2023-04-30T02:13:50;94657.88;;;7.79;100.00
57801;BME280;43627;42.728;23.256;2023-04-30T02:16:17;94669.63;;;7.94;100.00
57801;BME280;43627;42.728;23.256;2023-04-30T02:18:44;94669.03;;;7.90;100.00
57801;BME280;43627;42.728;23.256;2023-04-30T02:21:11;94668.13;;;7.93;100.00
57801;BME280;43627;42.728;23.256;2023-04-30T02:23:38;94669.78;;;8.00;100.00
57801;BME280;43627;42.728;23.256;2023-04-30T02:26:04;94663.16;;;8.01;100.00
57801;BME280;43627;42.728;23.256;2023-04-30T02:28:31;94673.84;;;8.14;100.00
57801;BME280;43627;42.728;23.256;2023-04-30T02:30:58;94669.34;;;8.11;100.00
57801;BME280;43627;42.728;23.256;2023-04-30T02:33:24;94666.31;;;8.18;100.00
57801;BME280;43627;42.728;23.256;2023-04-30T02:35:51;94675.53;;;8.20;100.00
57801;BME280;43627;42.728;23.256;2023-04-30T02:38:18;94665.13;;;8.19;100.00
57801;BME280;43627;42.728;23.256;2023-04-30T02:40:44;94674.00;;;8.19;100.00
57801;BME280;43627;42.728;23.256;2023-04-30T02:43:11;94676.56;;;8.32;100.00
57801;BME280;43627;42.728;23.256;2023-04-30T02:45:37;94676.28;;;8.39;100.00
57801;BME280;43627;42.728;23.256;2023-04-30T02:48:04;94669.66;;;8.40;100.00
57801;BME280;43627;42.728;23.256;2023-04-30T02:50:31;94674.03;;;8.38;100.00
57801;BME280;43627;42.728;23.256;2023-04-30T02:52:58;94685.03;;;8.43;100.00
57801;BME280;43627;42.728;23.256;2023-04-30T02:55:25;94677.81;;;8.40;100.00
57801;BME280;43627;42.728;23.256;2023-04-30T02:57:52;94682.47;;;8.40;100.00
57801;BME280;43627;42.728;23.256;2023-04-30T03:00:18;94683.84;;;8.35;100.00
57801;BME280;43627;42.728;23.256;2023-04-30T03:02:45;94686.69;;;8.31;100.00
57801;BME280;43627;42.728;23.256;2023-04-30T03:05:13;94685.66;;;8.38;100.00
57801;BME280;43627;42.728;23.256;2023-04-30T03:07:41;94678.72;;;8.37;100.00
57801;BME280;43627;42.728;23.256;2023-04-30T03:10:08;94674.34;;;8.40;100.00
57801;BME280;43627;42.728;23.256;2023-04-30T03:12:35;94673.28;;;8.37;100.00
57801;BME280;43627;42.728;23.256;2023-04-30T03:15:02;94692.88;;;8.50;100.00
57801;BME280;43627;42.728;23.256;2023-04-30T03:17:29;94686.84;;;8.46;100.00
57801;BME280;43627;42.728;23.256;2023-04-30T03:19:55;94693.50;;;8.54;100.00
57801;BME280;43627;42.728;23.256;2023-04-30T03:22:23;94686.84;;;8.55;100.00
57801;BME280;43627;42.728;23.256;2023-04-30T03:24:52;94687.88;;;8.67;100.00
57801;BME280;43627;42.728;23.256;2023-04-30T03:27:18;94694.53;;;8.66;100.00
57801;BME280;43627;42.728;23.256;2023-04-30T03:29:45;94693.91;;;8.62;100.00
57801;BME280;43627;42.728;23.256;2023-04-30T03:32:12;94695.75;;;8.65;100.00
57801;BME280;43627;42.728;23.256;2023-04-30T03:34:38;94704.78;;;8.62;100.00
57801;BME280;43627;42.728;23.256;2023-04-30T03:37:05;94698.75;;;8.58;100.00
57801;BME280;43627;42.728;23.256;2023-04-30T03:39:32;94707.97;;;8.61;100.00
57801;BME280;43627;42.728;23.256;2023-04-30T03:41:58;94707.84;;;8.64;100.00
57801;BME280;43627;42.728;23.256;2023-04-30T03:44:25;94716.56;;;8.59;100.00
57801;BME280;43627;42.728;23.256;2023-04-30T03:46:52;94720.34;;;8.52;100.00
57801;BME280;43627;42.728;23.256;2023-04-30T03:49:19;94723.84;;;8.44;100.00
57801;BME280;43627;42.728;23.256;2023-04-30T03:51:45;94723.41;;;8.36;100.00
57801;BME280;43627;42.728;23.256;2023-04-30T03:54:12;94724.56;;;8.17;100.00
57801;BME280;43627;42.728;23.256;2023-04-30T03:56:39;94726.06;;;8.18;100.00
57801;BME280;43627;42.728;23.256;2023-04-30T03:59:06;94722.72;;;8.14;100.00
57801;BME280;43627;42.728;23.256;2023-04-30T04:01:33;94731.78;;;8.11;100.00
57801;BME280;43627;42.728;23.256;2023-04-30T04:04:00;94717.00;;;8.12;100.00
57801;BME280;43627;42.728;23.256;2023-04-30T04:06:27;94727.28;;;8.08;100.00
57801;BME280;43627;42.728;23.256;2023-04-30T04:08:54;94736.94;;;8.09;100.00
57801;BME280;43627;42.728;23.256;2023-04-30T04:11:21;94739.47;;;8.12;100.00
57801;BME280;43627;42.728;23.256;2023-04-30T04:13:48;94731.50;;;8.18;100.00
57801;BME280;43627;42.728;23.256;2023-04-30T04:16:14;94725.31;;;8.17;100.00
57801;BME280;43627;42.728;23.256;2023-04-30T04:18:41;94742.22;;;8.21;100.00
57801;BME280;43627;42.728;23.256;2023-04-30T04:21:08;94735.72;;;8.28;100.00
57801;BME280;43627;42.728;23.256;2023-04-30T04:23:35;94731.63;;;8.23;100.00
57801;BME280;43627;42.728;23.256;2023-04-30T04:26:02;94729.66;;;8.15;100.00
57801;BME280;43627;42.728;23.256;2023-04-30T04:28:28;94742.41;;;8.36;100.00
57801;BME280;43627;42.728;23.256;2023-04-30T04:30:55;94742.41;;;8.36;100.00
57801;BME280;43627;42.728;23.256;2023-04-30T04:33:22;94747.94;;;8.32;100.00
57801;BME280;43627;42.728;23.256;2023-04-30T04:35:48;94749.31;;;8.28;100.00
57801;BME280;43627;42.728;23.256;2023-04-30T04:38:15;94739.38;;;8.52;100.00
57801;BME280;43627;42.728;23.256;2023-04-30T04:40:50;94745.88;;;8.64;100.00
57801;BME280;43627;42.728;23.256;2023-04-30T04:43:16;94747.66;;;8.76;100.00
57801;BME280;43627;42.728;23.256;2023-04-30T04:45:43;94751.88;;;8.86;100.00
57801;BME280;43627;42.728;23.256;2023-04-30T04:48:10;94747.63;;;9.04;100.00
57801;BME280;43627;42.728;23.256;2023-04-30T04:50:37;94744.88;;;9.13;100.00
57801;BME280;43627;42.728;23.256;2023-04-30T04:53:03;94749.88;;;9.05;100.00
57801;BME280;43627;42.728;23.256;2023-04-30T04:55:30;94754.41;;;9.08;100.00
57801;BME280;43627;42.728;23.256;2023-04-30T04:57:57;94766.19;;;9.14;100.00
57801;BME280;43627;42.728;23.256;2023-04-30T05:00:24;94759.09;;;9.08;100.00
57801;BME280;43627;42.728;23.256;2023-04-30T05:02:51;94754.50;;;9.32;100.00
57801;BME280;43627;42.728;23.256;2023-04-30T05:05:19;94761.38;;;9.52;100.00
57801;BME280;43627;42.728;23.256;2023-04-30T05:07:45;94773.13;;;9.67;100.00
57801;BME280;43627;42.728;23.256;2023-04-30T05:10:12;94763.56;;;9.71;100.00
57801;BME280;43627;42.728;23.256;2023-04-30T05:12:39;94749.38;;;9.67;100.00
57801;BME280;43627;42.728;23.256;2023-04-30T05:15:06;94765.69;;;9.77;100.00
57801;BME280;43627;42.728;23.256;2023-04-30T05:17:33;94762.06;;;9.70;100.00
57801;BME280;43627;42.728;23.256;2023-04-30T05:20:00;94760.28;;;9.67;100.00
57801;BME280;43627;42.728;23.256;2023-04-30T05:22:27;94767.22;;;9.68;100.00
57801;BME280;43627;42.728;23.256;2023-04-30T05:24:53;94771.13;;;9.77;100.00
57801;BME280;43627;42.728;23.256;2023-04-30T05:27:21;94767.59;;;9.85;100.00
57801;BME280;43627;42.728;23.256;2023-04-30T05:29:48;94766.22;;;9.90;100.00
57801;BME280;43627;42.728;23.256;2023-04-30T05:32:14;94770.44;;;9.91;100.00
57801;BME280;43627;42.728;23.256;2023-04-30T05:34:41;94763.16;;;9.64;100.00
57801;BME280;43627;42.728;23.256;2023-04-30T05:37:08;94772.09;;;9.55;100.00
57801;BME280;43627;42.728;23.256;2023-04-30T05:39:35;94766.59;;;9.73;100.00
57801;BME280;43627;42.728;23.256;2023-04-30T05:42:01;94766.53;;;9.83;100.00
57801;BME280;43627;42.728;23.256;2023-04-30T05:44:28;94770.41;;;10.00;100.00
57801;BME280;43627;42.728;23.256;2023-04-30T05:46:58;94774.28;;;10.08;100.00
57801;BME280;43627;42.728;23.256;2023-04-30T05:49:26;94767.72;;;10.24;100.00
57801;BME280;43627;42.728;23.256;2023-04-30T05:51:52;94767.34;;;10.31;100.00
57801;BME280;43627;42.728;23.256;2023-04-30T05:54:19;94765.16;;;10.44;100.00
57801;BME280;43627;42.728;23.256;2023-04-30T05:56:46;94763.03;;;10.63;100.00
57801;BME280;43627;42.728;23.256;2023-04-30T05:59:13;94767.13;;;10.82;100.00
57801;BME280;43627;42.728;23.256;2023-04-30T06:01:39;94770.72;;;11.03;100.00
57801;BME280;43627;42.728;23.256;2023-04-30T06:04:07;94786.72;;;11.10;97.82
57801;BME280;43627;42.728;23.256;2023-04-30T06:06:38;94789.16;;;11.23;95.76
57801;BME280;43627;42.728;23.256;2023-04-30T06:09:06;94750.66;;;11.06;94.67
57801;BME280;43627;42.728;23.256;2023-04-30T06:11:33;94741.63;;;10.85;97.29
57801;BME280;43627;42.728;23.256;2023-04-30T06:14:01;94793.59;;;11.35;96.43
57801;BME280;43627;42.728;23.256;2023-04-30T06:16:31;94745.03;;;11.39;93.69
57801;BME280;43627;42.728;23.256;2023-04-30T06:18:58;94788.84;;;11.65;91.40
57801;BME280;43627;42.728;23.256;2023-04-30T06:21:25;94740.41;;;11.45;92.59
57801;BME280;43627;42.728;23.256;2023-04-30T06:23:52;94788.22;;;11.85;92.26
57801;BME280;43627;42.728;23.256;2023-04-30T06:26:19;94790.72;;;11.74;91.31
57801;BME280;43627;42.728;23.256;2023-04-30T06:28:46;94790.28;;;11.61;93.14
57801;BME280;43627;42.728;23.256;2023-04-30T06:31:12;94789.81;;;11.77;96.44
57801;BME280;43627;42.728;23.256;2023-04-30T06:33:39;94796.50;;;12.26;92.36
57801;BME280;43627;42.728;23.256;2023-04-30T06:36:06;94788.09;;;12.70;86.71
57801;BME280;43627;42.728;23.256;2023-04-30T06:38:33;94780.81;;;13.08;83.82
57801;BME280;43627;42.728;23.256;2023-04-30T06:40:59;94782.78;;;13.59;76.63
57801;BME280;43627;42.728;23.256;2023-04-30T06:43:26;94783.38;;;14.06;71.72
57801;BME280;43627;42.728;23.256;2023-04-30T06:45:53;94791.44;;;14.64;66.92
57801;BME280;43627;42.728;23.256;2023-04-30T06:48:19;94793.53;;;14.97;63.64
57801;BME280;43627;42.728;23.256;2023-04-30T06:50:46;94796.06;;;15.06;62.16
57801;BME280;43627;42.728;23.256;2023-04-30T06:53:13;94786.59;;;15.12;60.46
57801;BME280;43627;42.728;23.256;2023-04-30T06:55:41;94802.13;;;14.56;66.20
57801;BME280;43627;42.728;23.256;2023-04-30T06:58:08;94778.59;;;14.44;64.60
57801;BME280;43627;42.728;23.256;2023-04-30T07:00:35;94783.84;;;14.42;64.01
57801;BME280;43627;42.728;23.256;2023-04-30T07:03:02;94790.94;;;14.60;64.06
57801;BME280;43627;42.728;23.256;2023-04-30T07:05:30;94781.75;;;14.74;63.87
57801;BME280;43627;42.728;23.256;2023-04-30T07:07:59;94784.34;;;15.00;61.38
57801;BME280;43627;42.728;23.256;2023-04-30T07:10:26;94780.41;;;15.34;60.72
57801;BME280;43627;42.728;23.256;2023-04-30T07:12:53;94791.16;;;15.38;61.96
57801;BME280;43627;42.728;23.256;2023-04-30T07:15:20;94788.84;;;15.14;62.23
57801;BME280;43627;42.728;23.256;2023-04-30T07:17:47;94791.31;;;15.06;62.51
57801;BME280;43627;42.728;23.256;2023-04-30T07:20:14;94791.31;;;15.01;63.58
57801;BME280;43627;42.728;23.256;2023-04-30T07:22:41;94794.78;;;14.96;61.94
57801;BME280;43627;42.728;23.256;2023-04-30T07:25:14;94796.50;;;14.82;63.77
57801;BME280;43627;42.728;23.256;2023-04-30T07:27:41;94800.78;;;14.94;63.26
57801;BME280;43627;42.728;23.256;2023-04-30T07:30:08;94794.13;;;15.18;61.00
57801;BME280;43627;42.728;23.256;2023-04-30T07:32:36;94790.63;;;15.34;60.62
57801;BME280;43627;42.728;23.256;2023-04-30T07:35:03;94785.88;;;15.23;60.87
57801;BME280;43627;42.728;23.256;2023-04-30T07:37:30;94805.84;;;15.18;62.79
57801;BME280;43627;42.728;23.256;2023-04-30T07:40:01;94806.59;;;15.19;62.77
57801;BME280;43627;42.728;23.256;2023-04-30T07:42:27;94790.88;;;15.30;64.46
57801;BME280;43627;42.728;23.256;2023-04-30T07:44:54;94785.41;;;15.53;61.41
57801;BME280;43627;42.728;23.256;2023-04-30T07:47:21;94790.97;;;15.64;60.61
57801;BME280;43627;42.728;23.256;2023-04-30T07:49:48;94791.44;;;15.46;62.60
57801;BME280;43627;42.728;23.256;2023-04-30T07:52:15;94785.72;;;15.66;62.79
57801;BME280;43627;42.728;23.256;2023-04-30T07:54:42;94782.72;;;15.64;65.65
57801;BME280;43627;42.728;23.256;2023-04-30T07:57:08;94793.69;;;15.81;62.19
57801;BME280;43627;42.728;23.256;2023-04-30T07:59:35;94801.44;;;15.88;59.58
57801;BME280;43627;42.728;23.256;2023-04-30T08:02:02;94794.47;;;15.87;60.25
57801;BME280;43627;42.728;23.256;2023-04-30T08:04:29;94798.44;;;15.97;59.69
57801;BME280;43627;42.728;23.256;2023-04-30T08:06:56;94805.94;;;16.08;58.94
57801;BME280;43627;42.728;23.256;2023-04-30T08:09:22;94800.94;;;16.06;59.61
57801;BME280;43627;42.728;23.256;2023-04-30T08:11:49;94800.94;;;15.78;59.73
57801;BME280;43627;42.728;23.256;2023-04-30T08:14:16;94809.47;;;15.75;58.78
57801;BME280;43627;42.728;23.256;2023-04-30T08:16:43;94785.47;;;15.64;56.55
57801;BME280;43627;42.728;23.256;2023-04-30T08:19:10;94805.19;;;15.62;56.94
57801;BME280;43627;42.728;23.256;2023-04-30T08:21:37;94814.16;;;15.52;57.10
57801;BME280;43627;42.728;23.256;2023-04-30T08:24:04;94798.41;;;15.52;57.96
57801;BME280;43627;42.728;23.256;2023-04-30T08:26:31;94805.41;;;15.53;55.70
57801;BME280;43627;42.728;23.256;2023-04-30T08:28:57;94800.97;;;15.67;58.09
57801;BME280;43627;42.728;23.256;2023-04-30T08:31:24;94804.97;;;15.83;57.83
57801;BME280;43627;42.728;23.256;2023-04-30T08:33:51;94809.44;;;16.08;53.50
57801;BME280;43627;42.728;23.256;2023-04-30T08:36:18;94801.19;;;16.14;53.11
57801;BME280;43627;42.728;23.256;2023-04-30T08:38:45;94814.19;;;16.13;52.57
57801;BME280;43627;42.728;23.256;2023-04-30T08:41:13;94805.69;;;16.06;53.29
57801;BME280;43627;42.728;23.256;2023-04-30T08:43:43;94800.91;;;16.34;52.14
57801;BME280;43627;42.728;23.256;2023-04-30T08:46:11;94801.31;;;16.72;50.96
57801;BME280;43627;42.728;23.256;2023-04-30T08:48:40;94796.13;;;16.46;51.23
57801;BME280;43627;42.728;23.256;2023-04-30T08:51:07;94787.56;;;16.77;50.91
57801;BME280;43627;42.728;23.256;2023-04-30T08:53:35;94791.56;;;16.71;50.06
57801;BME280;43627;42.728;23.256;2023-04-30T08:56:04;94794.56;;;16.62;50.13
57801;BME280;43627;42.728;23.256;2023-04-30T08:58:31;94785.13;;;17.15;49.77
57801;BME280;43627;42.728;23.256;2023-04-30T09:00:58;94787.06;;;17.61;48.57
57801;BME280;43627;42.728;23.256;2023-04-30T09:03:26;94772.81;;;17.93;48.21
57801;BME280;43627;42.728;23.256;2023-04-30T09:05:54;94777.88;;;18.38;48.88
57801;BME280;43627;42.728;23.256;2023-04-30T09:08:40;94764.06;;;18.68;45.17
57801;BME280;43627;42.728;23.256;2023-04-30T09:11:28;94778.56;;;18.93;45.64
57801;BME280;43627;42.728;23.256;2023-04-30T09:14:00;94763.44;;;18.75;45.09
57801;BME280;43627;42.728;23.256;2023-04-30T09:16:29;94762.88;;;19.01;45.51
57801;BME280;43627;42.728;23.256;2023-04-30T09:18:59;94758.19;;;19.33;44.71
57801;BME280;43627;42.728;23.256;2023-04-30T09:21:37;94740.47;;;19.23;43.08
57801;BME280;43627;42.728;23.256;2023-04-30T09:24:22;94754.44;;;19.12;43.63
57801;BME280;43627;42.728;23.256;2023-04-30T09:26:50;94674.84;;;18.73;43.77
57801;BME280;43627;42.728;23.256;2023-04-30T09:29:17;94702.50;;;18.48;45.56
57801;BME280;43627;42.728;23.256;2023-04-30T09:31:47;94762.28;;;19.08;44.99
57801;BME280;43627;42.728;23.256;2023-04-30T09:34:33;94731.00;;;19.51;44.96
57801;BME280;43627;42.728;23.256;2023-04-30T09:37:01;94739.47;;;19.39;45.37
57801;BME280;43627;42.728;23.256;2023-04-30T09:39:28;94746.66;;;19.80;45.21
57801;BME280;43627;42.728;23.256;2023-04-30T09:42:08;94743.13;;;19.66;43.30
57801;BME280;43627;42.728;23.256;2023-04-30T09:44:42;94733.09;;;19.95;42.72
57801;BME280;43627;42.728;23.256;2023-04-30T09:47:13;94735.72;;;20.60;41.78
57801;BME280;43627;42.728;23.256;2023-04-30T09:49:42;94699.06;;;20.40;41.04
57801;BME280;43627;42.728;23.256;2023-04-30T09:52:11;94721.72;;;20.12;41.75
57801;BME280;43627;42.728;23.256;2023-04-30T09:54:39;94717.97;;;19.96;42.76
57801;BME280;43627;42.728;23.256;2023-04-30T09:57:09;94727.13;;;20.18;41.94
57801;BME280;43627;42.728;23.256;2023-04-30T09:59:37;94710.13;;;20.27;41.60
57801;BME280;43627;42.728;23.256;2023-04-30T10:02:06;94715.00;;;19.94;42.31
57801;BME280;43627;42.728;23.256;2023-04-30T10:04:41;94714.28;;;19.62;42.26
57801;BME280;43627;42.728;23.256;2023-04-30T10:07:12;94706.84;;;19.38;43.46
57801;BME280;43627;42.728;23.256;2023-04-30T10:09:58;94726.72;;;19.36;42.64
57801;BME280;43627;42.728;23.256;2023-04-30T10:12:42;94691.22;;;18.71;43.63
57801;BME280;43627;42.728;23.256;2023-04-30T10:15:14;94764.22;;;17.66;46.85
57801;BME280;43627;42.728;23.256;2023-04-30T10:17:48;94711.44;;;16.80;48.54
57801;BME280;43627;42.728;23.256;2023-04-30T10:20:16;94686.94;;;16.07;51.10
57801;BME280;43627;42.728;23.256;2023-04-30T10:22:46;94744.72;;;15.62;54.10
57801;BME280;43627;42.728;23.256;2023-04-30T10:25:14;94771.69;;;15.53;59.94
57801;BME280;43627;42.728;23.256;2023-04-30T10:27:42;94766.94;;;15.36;61.66
57801;BME280;43627;42.728;23.256;2023-04-30T10:30:09;94770.16;;;15.24;60.63
57801;BME280;43627;42.728;23.256;2023-04-30T10:32:52;94753.69;;;15.52;62.95
57801;BME280;43627;42.728;23.256;2023-04-30T10:35:31;94739.72;;;15.72;58.78
57801;BME280;43627;42.728;23.256;2023-04-30T10:38:12;94751.19;;;16.10;56.80
57801;BME280;43627;42.728;23.256;2023-04-30T10:40:45;94718.41;;;16.23;58.08
57801;BME280;43627;42.728;23.256;2023-04-30T10:43:12;94703.69;;;16.67;52.55
57801;BME280;43627;42.728;23.256;2023-04-30T10:45:42;94750.97;;;17.29;52.26
57801;BME280;43627;42.728;23.256;2023-04-30T10:48:14;94729.13;;;17.31;50.16
57801;BME280;43627;42.728;23.256;2023-04-30T10:50:43;94750.19;;;17.34;48.96
57801;BME280;43627;42.728;23.256;2023-04-30T10:53:13;94738.66;;;17.30;50.52
57801;BME280;43627;42.728;23.256;2023-04-30T10:55:59;94737.81;;;17.82;49.37
57801;BME280;43627;42.728;23.256;2023-04-30T10:58:34;94726.50;;;18.35;46.35
57801;BME280;43627;42.728;23.256;2023-04-30T11:01:10;94733.63;;;18.49;46.91
57801;BME280;43627;42.728;23.256;2023-04-30T11:03:39;94698.09;;;18.40;46.16
57801;BME280;43627;42.728;23.256;2023-04-30T11:06:14;94728.75;;;18.79;46.86
57801;BME280;43627;42.728;23.256;2023-04-30T11:08:46;94715.69;;;19.18;44.18
57801;BME280;43627;42.728;23.256;2023-04-30T11:11:19;94712.38;;;18.63;46.22
57801;BME280;43627;42.728;23.256;2023-04-30T11:13:59;94730.56;;;18.52;46.20
57801;BME280;43627;42.728;23.256;2023-04-30T11:16:32;94730.06;;;18.30;46.92
57801;BME280;43627;42.728;23.256;2023-04-30T11:19:09;94726.75;;;18.55;47.34
57801;BME280;43627;42.728;23.256;2023-04-30T11:21:41;94731.06;;;18.75;46.99
57801;BME280;43627;42.728;23.256;2023-04-30T11:24:08;94723.16;;;19.04;46.56
57801;BME280;43627;42.728;23.256;2023-04-30T11:27:07;94729.94;;;18.65;45.97
57801;BME280;43627;42.728;23.256;2023-04-30T11:29:42;94710.06;;;18.86;44.04
57801;BME280;43627;42.728;23.256;2023-04-30T11:32:09;94687.16;;;18.72;43.68
57801;BME280;43627;42.728;23.256;2023-04-30T11:34:36;94697.91;;;18.75;43.60
57801;BME280;43627;42.728;23.256;2023-04-30T11:37:05;94726.13;;;18.44;48.31
57801;BME280;43627;42.728;23.256;2023-04-30T11:39:34;94726.28;;;18.33;50.41
57801;BME280;43627;42.728;23.256;2023-04-30T11:42:02;94663.38;;;18.25;51.38
57801;BME280;43627;42.728;23.256;2023-04-30T11:44:29;94648.06;;;18.24;48.91
57801;BME280;43627;42.728;23.256;2023-04-30T11:46:56;94710.59;;;18.65;48.49
57801;BME280;43627;42.728;23.256;2023-04-30T11:49:25;94663.19;;;18.18;49.82
57801;BME280;43627;42.728;23.256;2023-04-30T11:51:52;94713.78;;;17.77;53.82
57801;BME280;43627;42.728;23.256;2023-04-30T11:54:19;94698.81;;;16.96;60.13
57801;BME280;43627;42.728;23.256;2023-04-30T11:56:47;94674.09;;;16.32;63.09
57801;BME280;43627;42.728;23.256;2023-04-30T11:59:15;94715.78;;;16.59;63.48
57801;BME280;43627;42.728;23.256;2023-04-30T12:01:42;94713.31;;;16.44;63.69
57801;BME280;43627;42.728;23.256;2023-04-30T12:06:35;94709.50;;;15.72;65.73
57801;BME280;43627;42.728;23.256;2023-04-30T12:09:03;94700.00;;;15.45;68.89
57801;BME280;43627;42.728;23.256;2023-04-30T12:11:34;94733.97;;;15.70;67.53
57801;BME280;43627;42.728;23.256;2023-04-30T12:14:05;94751.72;;;15.58;64.09
57801;BME280;43627;42.728;23.256;2023-04-30T12:16:43;94708.22;;;15.11;66.13
57801;BME280;43627;42.728;23.256;2023-04-30T12:19:17;94763.94;;;15.57;67.69
57801;BME280;43627;42.728;23.256;2023-04-30T12:21:46;94739.50;;;15.64;66.47
57801;BME280;43627;42.728;23.256;2023-04-30T12:24:15;94746.47;;;15.49;70.67
57801;BME280;43627;42.728;23.256;2023-04-30T12:26:43;94729.97;;;15.43;70.72
57801;BME280;43627;42.728;23.256;2023-04-30T12:29:14;94722.47;;;15.49;72.50
57801;BME280;43627;42.728;23.256;2023-04-30T12:31:42;94748.44;;;16.04;71.82
57801;BME280;43627;42.728;23.256;2023-04-30T12:34:11;94731.69;;;16.13;65.39
57801;BME280;43627;42.728;23.256;2023-04-30T12:36:39;94738.16;;;16.10;63.07
57801;BME280;43627;42.728;23.256;2023-04-30T12:39:15;94736.47;;;15.90;64.96
57801;BME280;43627;42.728;23.256;2023-04-30T12:41:47;94738.41;;;16.18;65.16
57801;BME280;43627;42.728;23.256;2023-04-30T12:44:25;94733.13;;;16.31;61.86
57801;BME280;43627;42.728;23.256;2023-04-30T12:46:54;94732.41;;;16.25;63.06
57801;BME280;43627;42.728;23.256;2023-04-30T12:49:27;94738.56;;;16.48;62.21
57801;BME280;43627;42.728;23.256;2023-04-30T12:52:07;94738.09;;;16.44;60.34
57801;BME280;43627;42.728;23.256;2023-04-30T12:54:35;94744.09;;;16.42;59.32
57801;BME280;43627;42.728;23.256;2023-04-30T12:57:10;94735.56;;;16.46;59.92
57801;BME280;43627;42.728;23.256;2023-04-30T12:59:57;94734.22;;;16.75;58.89
57801;BME280;43627;42.728;23.256;2023-04-30T13:02:26;94724.59;;;16.98;56.60
57801;BME280;43627;42.728;23.256;2023-04-30T13:04:54;94714.44;;;16.82;57.34
57801;BME280;43627;42.728;23.256;2023-04-30T13:07:21;94711.97;;;16.73;58.04
57801;BME280;43627;42.728;23.256;2023-04-30T13:09:48;94719.91;;;16.88;57.15
57801;BME280;43627;42.728;23.256;2023-04-30T13:12:15;94689.66;;;16.82;55.75
57801;BME280;43627;42.728;23.256;2023-04-30T13:14:43;94702.56;;;16.98;56.79
57801;BME280;43627;42.728;23.256;2023-04-30T13:17:10;94706.63;;;17.27;55.79
57801;BME280;43627;42.728;23.256;2023-04-30T13:19:39;94698.94;;;17.14;56.09
57801;BME280;43627;42.728;23.256;2023-04-30T13:22:06;94655.25;;;16.94;56.67
57801;BME280;43627;42.728;23.256;2023-04-30T13:24:34;94713.66;;;17.58;53.82
57801;BME280;43627;42.728;23.256;2023-04-30T13:27:01;94690.75;;;17.75;52.80